sensor_id;sensor_type;location;lat;lon;timestamp;temperature;humidity
68867;SHT30;56451;44.804;20.476;2023-11-21T00:01:25;12.81;64.37
68867;SHT30;56451;44.804;20.476;2023-11-21T00:03:53;12.71;64.78
68867;SHT30;56451;44.804;20.476;2023-11-21T00:06:27;12.64;64.40
68867;SHT30;56451;44.804;20.476;2023-11-21T00:08:57;12.53;64.73
68867;SHT30;56451;44.804;20.476;2023-11-21T00:11:25;12.46;65.13
68867;SHT30;56451;44.804;20.476;2023-11-21T00:13:52;12.43;65.34
68867;SHT30;56451;44.804;20.476;2023-11-21T00:16:21;12.40;65.30
68867;SHT30;56451;44.804;20.476;2023-11-21T00:18:49;12.43;65.17
68867;SHT30;56451;44.804;20.476;2023-11-21T00:21:19;12.41;65.14
68867;SHT30;56451;44.804;20.476;2023-11-21T00:23:47;12.43;65.09
68867;SHT30;56451;44.804;20.476;2023-11-21T00:26:17;12.41;65.10
68867;SHT30;56451;44.804;20.476;2023-11-21T00:28:53;12.44;64.90
68867;SHT30;56451;44.804;20.476;2023-11-21T00:31:21;12.47;64.79
68867;SHT30;56451;44.804;20.476;2023-11-21T00:33:49;12.47;64.65
68867;SHT30;56451;44.804;20.476;2023-11-21T00:36:17;12.46;64.31
68867;SHT30;56451;44.804;20.476;2023-11-21T00:38:45;12.51;63.94
68867;SHT30;56451;44.804;20.476;2023-11-21T00:41:15;12.53;63.48
68867;SHT30;56451;44.804;20.476;2023-11-21T00:43:43;12.56;62.90
68867;SHT30;56451;44.804;20.476;2023-11-21T00:46:11;12.60;62.06
68867;SHT30;56451;44.804;20.476;2023-11-21T00:48:40;12.61;61.85
68867;SHT30;56451;44.804;20.476;2023-11-21T00:51:07;12.64;61.36
68867;SHT30;56451;44.804;20.476;2023-11-21T00:53:34;12.63;60.87
68867;SHT30;56451;44.804;20.476;2023-11-21T00:56:03;12.71;60.47
68867;SHT30;56451;44.804;20.476;2023-11-21T00:58:33;12.70;59.78
68867;SHT30;56451;44.804;20.476;2023-11-21T01:01:01;12.71;59.27
68867;SHT30;56451;44.804;20.476;2023-11-21T01:03:31;12.81;58.81
68867;SHT30;56451;44.804;20.476;2023-11-21T01:05:59;12.85;58.41
68867;SHT30;56451;44.804;20.476;2023-11-21T01:08:27;12.88;58.03
68867;SHT30;56451;44.804;20.476;2023-11-21T01:10:56;12.95;57.51
68867;SHT30;56451;44.804;20.476;2023-11-21T01:13:24;12.99;57.37
68867;SHT30;56451;44.804;20.476;2023-11-21T01:15:55;13.01;56.84
68867;SHT30;56451;44.804;20.476;2023-11-21T01:18:24;13.04;56.93
68867;SHT30;56451;44.804;20.476;2023-11-21T01:20:53;13.08;56.75
68867;SHT30;56451;44.804;20.476;2023-11-21T01:23:23;13.11;56.72
68867;SHT30;56451;44.804;20.476;2023-11-21T01:25:51;13.15;56.67
68867;SHT30;56451;44.804;20.476;2023-11-21T01:28:21;13.19;56.44
68867;SHT30;56451;44.804;20.476;2023-11-21T01:30:50;13.19;56.27
68867;SHT30;56451;44.804;20.476;2023-11-21T01:33:18;13.20;56.28
68867;SHT30;56451;44.804;20.476;2023-11-21T01:35:47;13.22;56.23
68867;SHT30;56451;44.804;20.476;2023-11-21T01:38:16;13.22;56.13
68867;SHT30;56451;44.804;20.476;2023-11-21T01:40:44;13.26;56.31
68867;SHT30;56451;44.804;20.476;2023-11-21T01:43:13;13.27;56.21
68867;SHT30;56451;44.804;20.476;2023-11-21T01:45:42;13.29;56.22
68867;SHT30;56451;44.804;20.476;2023-11-21T01:48:12;13.30;56.02
68867;SHT30;56451;44.804;20.476;2023-11-21T01:50:41;13.27;55.94
68867;SHT30;56451;44.804;20.476;2023-11-21T01:53:12;13.29;55.98
68867;SHT30;56451;44.804;20.476;2023-11-21T01:55:41;13.30;56.01
68867;SHT30;56451;44.804;20.476;2023-11-21T01:58:11;13.38;55.92
68867;SHT30;56451;44.804;20.476;2023-11-21T02:00:40;13.47;55.40
68867;SHT30;56451;44.804;20.476;2023-11-21T02:03:10;13.50;55.10
68867;SHT30;56451;44.804;20.476;2023-11-21T02:05:40;13.47;55.10
68867;SHT30;56451;44.804;20.476;2023-11-21T02:08:08;13.53;55.03
68867;SHT30;56451;44.804;20.476;2023-11-21T02:10:39;13.60;55.13
68867;SHT30;56451;44.804;20.476;2023-11-21T02:13:09;13.63;54.79
68867;SHT30;56451;44.804;20.476;2023-11-21T02:15:41;13.62;55.12
68867;SHT30;56451;44.804;20.476;2023-11-21T02:18:11;13.60;55.46
68867;SHT30;56451;44.804;20.476;2023-11-21T02:20:42;13.57;55.85
68867;SHT30;56451;44.804;20.476;2023-11-21T02:23:10;13.50;56.38
68867;SHT30;56451;44.804;20.476;2023-11-21T02:25:41;13.55;57.25
68867;SHT30;56451;44.804;20.476;2023-11-21T02:28:10;13.57;58.29
68867;SHT30;56451;44.804;20.476;2023-11-21T02:30:40;13.52;59.04
68867;SHT30;56451;44.804;20.476;2023-11-21T02:33:11;13.47;59.46
68867;SHT30;56451;44.804;20.476;2023-11-21T02:35:42;13.38;59.98
68867;SHT30;56451;44.804;20.476;2023-11-21T02:38:11;13.27;60.56
68867;SHT30;56451;44.804;20.476;2023-11-21T02:40:40;13.18;60.84
68867;SHT30;56451;44.804;20.476;2023-11-21T02:43:08;12.98;61.47
68867;SHT30;56451;44.804;20.476;2023-11-21T02:45:37;12.99;61.64
68867;SHT30;56451;44.804;20.476;2023-11-21T02:48:04;12.98;61.61
68867;SHT30;56451;44.804;20.476;2023-11-21T02:50:35;12.98;61.24
68867;SHT30;56451;44.804;20.476;2023-11-21T02:53:04;12.94;61.00
68867;SHT30;56451;44.804;20.476;2023-11-21T02:55:31;12.84;61.24
68867;SHT30;56451;44.804;20.476;2023-11-21T02:58:03;12.81;61.27
68867;SHT30;56451;44.804;20.476;2023-11-21T03:00:31;12.78;61.13
68867;SHT30;56451;44.804;20.476;2023-11-21T03:03:01;12.73;61.62
68867;SHT30;56451;44.804;20.476;2023-11-21T03:05:31;12.73;62.00
68867;SHT30;56451;44.804;20.476;2023-11-21T03:08:00;12.78;61.67
68867;SHT30;56451;44.804;20.476;2023-11-21T03:10:29;12.84;61.60
68867;SHT30;56451;44.804;20.476;2023-11-21T03:13:00;12.83;61.53
68867;SHT30;56451;44.804;20.476;2023-11-21T03:15:28;12.80;61.70
68867;SHT30;56451;44.804;20.476;2023-11-21T03:17:56;12.77;62.19
68867;SHT30;56451;44.804;20.476;2023-11-21T03:20:27;12.71;62.58
68867;SHT30;56451;44.804;20.476;2023-11-21T03:22:57;12.63;62.90
68867;SHT30;56451;44.804;20.476;2023-11-21T03:25:29;12.54;63.16
68867;SHT30;56451;44.804;20.476;2023-11-21T03:27:57;12.57;63.14
68867;SHT30;56451;44.804;20.476;2023-11-21T07:19:59;13.16;56.02
68867;SHT30;56451;44.804;20.476;2023-11-21T07:22:25;13.02;56.39
68867;SHT30;56451;44.804;20.476;2023-11-21T07:24:50;12.95;56.46
68867;SHT30;56451;44.804;20.476;2023-11-21T07:27:17;12.74;57.01
68867;SHT30;56451;44.804;20.476;2023-11-21T07:29:44;12.57;57.40
68867;SHT30;56451;44.804;20.476;2023-11-21T07:32:10;12.46;57.76
68867;SHT30;56451;44.804;20.476;2023-11-21T07:34:37;12.32;58.35
68867;SHT30;56451;44.804;20.476;2023-11-21T07:37:03;12.22;58.60
68867;SHT30;56451;44.804;20.476;2023-11-21T07:39:29;12.18;58.94
68867;SHT30;56451;44.804;20.476;2023-11-21T07:41:56;12.16;59.13
68867;SHT30;56451;44.804;20.476;2023-11-21T07:44:23;12.23;59.05
68867;SHT30;56451;44.804;20.476;2023-11-21T07:46:49;12.29;59.07
68867;SHT30;56451;44.804;20.476;2023-11-21T07:49:18;12.39;58.88
68867;SHT30;56451;44.804;20.476;2023-11-21T07:51:46;12.41;58.71
68867;SHT30;56451;44.804;20.476;2023-11-21T07:54:12;12.43;58.74
68867;SHT30;56451;44.804;20.476;2023-11-21T07:56:38;12.49;58.60
68867;SHT30;56451;44.804;20.476;2023-11-21T07:59:04;12.54;58.46
68867;SHT30;56451;44.804;20.476;2023-11-21T08:01:30;12.63;58.43
68867;SHT30;56451;44.804;20.476;2023-11-21T08:03:57;12.61;58.32
68867;SHT30;56451;44.804;20.476;2023-11-21T08:06:27;12.61;58.49
68867;SHT30;56451;44.804;20.476;2023-11-21T08:08:54;12.64;58.53
68867;SHT30;56451;44.804;20.476;2023-11-21T08:11:19;12.67;58.44
68867;SHT30;56451;44.804;20.476;2023-11-21T08:13:46;12.71;58.44
68867;SHT30;56451;44.804;20.476;2023-11-21T08:16:12;12.80;58.20
68867;SHT30;56451;44.804;20.476;2023-11-21T08:18:38;12.91;57.91
68867;SHT30;56451;44.804;20.476;2023-11-21T08:21:05;12.94;57.83
68867;SHT30;56451;44.804;20.476;2023-11-21T08:23:32;13.06;57.62
68867;SHT30;56451;44.804;20.476;2023-11-21T08:25:58;13.14;57.39
68867;SHT30;56451;44.804;20.476;2023-11-21T08:28:24;13.22;57.24
68867;SHT30;56451;44.804;20.476;2023-11-21T08:30:52;13.29;56.86
68867;SHT30;56451;44.804;20.476;2023-11-21T08:33:18;13.39;56.62
68867;SHT30;56451;44.804;20.476;2023-11-21T08:35:44;13.47;56.26
68867;SHT30;56451;44.804;20.476;2023-11-21T08:38:12;13.53;55.87
68867;SHT30;56451;44.804;20.476;2023-11-21T08:40:38;13.63;55.80
68867;SHT30;56451;44.804;20.476;2023-11-21T08:43:04;13.64;55.56
68867;SHT30;56451;44.804;20.476;2023-11-21T08:45:34;13.66;55.61
68867;SHT30;56451;44.804;20.476;2023-11-21T08:48:00;13.73;55.52
68867;SHT30;56451;44.804;20.476;2023-11-21T08:50:26;13.85;55.20
68867;SHT30;56451;44.804;20.476;2023-11-21T08:52:52;13.88;55.09
68867;SHT30;56451;44.804;20.476;2023-11-21T08:55:18;13.94;54.91
68867;SHT30;56451;44.804;20.476;2023-11-21T08:57:45;14.04;54.72
68867;SHT30;56451;44.804;20.476;2023-11-21T09:00:12;14.08;54.60
68867;SHT30;56451;44.804;20.476;2023-11-21T09:02:43;14.10;54.58
68867;SHT30;56451;44.804;20.476;2023-11-21T09:05:10;14.18;54.50
68867;SHT30;56451;44.804;20.476;2023-11-21T09:07:38;14.17;54.50
68867;SHT30;56451;44.804;20.476;2023-11-21T09:10:05;14.24;54.48
68867;SHT30;56451;44.804;20.476;2023-11-21T09:12:34;14.31;54.50
68867;SHT30;56451;44.804;20.476;2023-11-21T09:15:07;14.35;54.31
68867;SHT30;56451;44.804;20.476;2023-11-21T09:17:33;14.49;54.25
68867;SHT30;56451;44.804;20.476;2023-11-21T09:20:02;14.49;54.27
68867;SHT30;56451;44.804;20.476;2023-11-21T09:22:32;14.56;54.18
68867;SHT30;56451;44.804;20.476;2023-11-21T09:24:58;14.62;54.18
68867;SHT30;56451;44.804;20.476;2023-11-21T09:27:24;14.70;54.06
68867;SHT30;56451;44.804;20.476;2023-11-21T09:29:51;14.80;53.87
68867;SHT30;56451;44.804;20.476;2023-11-21T09:32:18;14.87;53.54
68867;SHT30;56451;44.804;20.476;2023-11-21T09:34:45;14.96;53.39
68867;SHT30;56451;44.804;20.476;2023-11-21T09:37:11;15.07;53.39
68867;SHT30;56451;44.804;20.476;2023-11-21T09:39:36;15.10;53.01
68867;SHT30;56451;44.804;20.476;2023-11-21T09:42:10;15.16;52.81
68867;SHT30;56451;44.804;20.476;2023-11-21T09:47:38;15.17;52.87
68867;SHT30;56451;44.804;20.476;2023-11-21T09:50:05;15.18;52.81
68867;SHT30;56451;44.804;20.476;2023-11-21T09:52:40;15.17;52.84
68867;SHT30;56451;44.804;20.476;2023-11-21T09:55:09;15.20;52.96
68867;SHT30;56451;44.804;20.476;2023-11-21T09:57:39;15.14;53.14
68867;SHT30;56451;44.804;20.476;2023-11-21T10:00:08;15.18;53.17
68867;SHT30;56451;44.804;20.476;2023-11-21T10:02:38;15.14;53.03
68867;SHT30;56451;44.804;20.476;2023-11-21T10:05:06;15.11;53.33
68867;SHT30;56451;44.804;20.476;2023-11-21T10:07:35;15.08;53.44
68867;SHT30;56451;44.804;20.476;2023-11-21T10:10:02;15.16;53.33
68867;SHT30;56451;44.804;20.476;2023-11-21T10:12:28;15.11;53.27
68867;SHT30;56451;44.804;20.476;2023-11-21T10:14:56;15.10;53.35
68867;SHT30;56451;44.804;20.476;2023-11-21T10:17:25;15.08;53.35
68867;SHT30;56451;44.804;20.476;2023-11-21T10:19:56;15.03;53.72
68867;SHT30;56451;44.804;20.476;2023-11-21T10:22:24;15.04;53.92
68867;SHT30;56451;44.804;20.476;2023-11-21T10:24:50;15.10;53.98
68867;SHT30;56451;44.804;20.476;2023-11-21T10:27:16;15.12;53.94
68867;SHT30;56451;44.804;20.476;2023-11-21T10:29:42;15.16;53.88
68867;SHT30;56451;44.804;20.476;2023-11-21T10:32:08;15.24;53.84
68867;SHT30;56451;44.804;20.476;2023-11-21T10:34:34;15.27;53.71
68867;SHT30;56451;44.804;20.476;2023-11-21T10:37:11;15.34;53.78
68867;SHT30;56451;44.804;20.476;2023-11-21T10:39:38;15.38;53.49
68867;SHT30;56451;44.804;20.476;2023-11-21T10:42:08;15.39;53.25
68867;SHT30;56451;44.804;20.476;2023-11-21T10:44:35;15.45;53.22
68867;SHT30;56451;44.804;20.476;2023-11-21T10:47:01;15.47;53.59
68867;SHT30;56451;44.804;20.476;2023-11-21T10:49:28;15.48;53.56
68867;SHT30;56451;44.804;20.476;2023-11-21T10:51:54;15.54;53.42
68867;SHT30;56451;44.804;20.476;2023-11-21T10:54:21;15.55;53.70
68867;SHT30;56451;44.804;20.476;2023-11-21T10:56:53;15.61;53.92
68867;SHT30;56451;44.804;20.476;2023-11-21T10:59:19;15.58;54.14
68867;SHT30;56451;44.804;20.476;2023-11-21T11:01:51;15.62;54.11
68867;SHT30;56451;44.804;20.476;2023-11-21T11:04:19;15.62;54.10
68867;SHT30;56451;44.804;20.476;2023-11-21T11:06:55;15.63;54.27
68867;SHT30;56451;44.804;20.476;2023-11-21T11:09:22;15.70;54.38
68867;SHT30;56451;44.804;20.476;2023-11-21T11:11:48;15.68;54.73
68867;SHT30;56451;44.804;20.476;2023-11-21T11:14:15;15.66;55.22
68867;SHT30;56451;44.804;20.476;2023-11-21T11:16:42;15.70;55.56
68867;SHT30;56451;44.804;20.476;2023-11-21T11:19:11;15.70;56.43
68867;SHT30;56451;44.804;20.476;2023-11-21T11:32:49;15.10;59.61
68867;SHT30;56451;44.804;20.476;2023-11-21T11:35:30;14.93;60.03
68867;SHT30;56451;44.804;20.476;2023-11-21T11:37:59;14.72;60.75
68867;SHT30;56451;44.804;20.476;2023-11-21T11:40:38;14.66;60.85
68867;SHT30;56451;44.804;20.476;2023-11-21T11:43:06;14.63;61.16
68867;SHT30;56451;44.804;20.476;2023-11-21T11:45:34;14.59;61.47
68867;SHT30;56451;44.804;20.476;2023-11-21T11:48:01;14.53;61.60
68867;SHT30;56451;44.804;20.476;2023-11-21T11:50:29;14.49;60.55
68867;SHT30;56451;44.804;20.476;2023-11-21T11:53:12;14.33;61.88
68867;SHT30;56451;44.804;20.476;2023-11-21T11:55:39;14.21;62.60
68867;SHT30;56451;44.804;20.476;2023-11-21T11:58:06;14.17;62.96
68867;SHT30;56451;44.804;20.476;2023-11-21T12:03:00;14.17;63.20
68867;SHT30;56451;44.804;20.476;2023-11-21T12:05:32;14.17;63.33
68867;SHT30;56451;44.804;20.476;2023-11-21T12:08:03;14.15;63.28
68867;SHT30;56451;44.804;20.476;2023-11-21T12:10:31;14.18;63.25
68867;SHT30;56451;44.804;20.476;2023-11-21T12:13:00;14.18;63.50
68867;SHT30;56451;44.804;20.476;2023-11-21T12:15:27;14.18;63.73
68867;SHT30;56451;44.804;20.476;2023-11-21T12:17:57;14.24;63.91
68867;SHT30;56451;44.804;20.476;2023-11-21T12:20:26;14.29;63.60
68867;SHT30;56451;44.804;20.476;2023-11-21T12:22:54;14.33;63.36
68867;SHT30;56451;44.804;20.476;2023-11-21T12:25:25;14.36;63.24
68867;SHT30;56451;44.804;20.476;2023-11-21T12:27:55;14.31;63.32
68867;SHT30;56451;44.804;20.476;2023-11-21T12:30:22;14.24;63.52
68867;SHT30;56451;44.804;20.476;2023-11-21T12:32:53;14.20;63.56
68867;SHT30;56451;44.804;20.476;2023-11-21T12:35:21;14.07;64.06
68867;SHT30;56451;44.804;20.476;2023-11-21T12:37:48;13.97;64.94
68867;SHT30;56451;44.804;20.476;2023-11-21T12:40:15;13.90;65.32
68867;SHT30;56451;44.804;20.476;2023-11-21T12:42:42;13.83;65.54
68867;SHT30;56451;44.804;20.476;2023-11-21T12:45:20;13.94;64.70
68867;SHT30;56451;44.804;20.476;2023-11-21T12:47:48;13.87;65.26
68867;SHT30;56451;44.804;20.476;2023-11-21T12:50:20;13.74;65.78
68867;SHT30;56451;44.804;20.476;2023-11-21T12:52:52;13.63;66.19
68867;SHT30;56451;44.804;20.476;2023-11-21T12:55:21;13.55;67.50
68867;SHT30;56451;44.804;20.476;2023-11-21T12:57:54;13.49;68.36
68867;SHT30;56451;44.804;20.476;2023-11-21T13:00:35;13.56;68.00
68867;SHT30;56451;44.804;20.476;2023-11-21T13:03:04;13.52;68.58
68867;SHT30;56451;44.804;20.476;2023-11-21T13:05:33;13.38;68.59
68867;SHT30;56451;44.804;20.476;2023-11-21T13:08:01;13.29;69.00
68867;SHT30;56451;44.804;20.476;2023-11-21T13:10:30;13.27;69.26
68867;SHT30;56451;44.804;20.476;2023-11-21T13:13:00;13.16;69.48
68867;SHT30;56451;44.804;20.476;2023-11-21T13:15:27;12.98;70.53
68867;SHT30;56451;44.804;20.476;2023-11-21T13:17:54;12.81;71.44
68867;SHT30;56451;44.804;20.476;2023-11-21T13:20:26;12.67;71.83
68867;SHT30;56451;44.804;20.476;2023-11-21T13:22:54;12.56;72.32
68867;SHT30;56451;44.804;20.476;2023-11-21T13:25:23;12.36;72.97
68867;SHT30;56451;44.804;20.476;2023-11-21T13:27:49;12.32;73.37
68867;SHT30;56451;44.804;20.476;2023-11-21T13:30:16;12.23;74.00
68867;SHT30;56451;44.804;20.476;2023-11-21T13:32:44;12.18;74.15
68867;SHT30;56451;44.804;20.476;2023-11-21T13:35:15;12.10;74.49
68867;SHT30;56451;44.804;20.476;2023-11-21T13:37:50;12.02;75.16
68867;SHT30;56451;44.804;20.476;2023-11-21T13:40:22;11.98;75.73
68867;SHT30;56451;44.804;20.476;2023-11-21T13:42:53;11.96;76.10
68867;SHT30;56451;44.804;20.476;2023-11-21T13:45:23;11.95;76.30
68867;SHT30;56451;44.804;20.476;2023-11-21T13:47:52;11.93;76.65
68867;SHT30;56451;44.804;20.476;2023-11-21T13:50:23;11.95;76.84
68867;SHT30;56451;44.804;20.476;2023-11-21T13:52:52;12.08;76.67
68867;SHT30;56451;44.804;20.476;2023-11-21T13:55:20;12.12;76.82
68867;SHT30;56451;44.804;20.476;2023-11-21T13:57:47;12.13;76.73
68867;SHT30;56451;44.804;20.476;2023-11-21T14:00:17;12.10;77.15
68867;SHT30;56451;44.804;20.476;2023-11-21T14:03:02;12.10;77.42
68867;SHT30;56451;44.804;20.476;2023-11-21T14:05:34;12.13;77.46
68867;SHT30;56451;44.804;20.476;2023-11-21T14:08:00;12.19;77.52
68867;SHT30;56451;44.804;20.476;2023-11-21T14:10:30;12.22;77.16
68867;SHT30;56451;44.804;20.476;2023-11-21T14:13:09;12.28;76.89
68867;SHT30;56451;44.804;20.476;2023-11-21T14:15:39;12.34;76.81
68867;SHT30;56451;44.804;20.476;2023-11-21T14:18:11;12.40;76.64
68867;SHT30;56451;44.804;20.476;2023-11-21T14:20:38;12.47;76.31
68867;SHT30;56451;44.804;20.476;2023-11-21T14:23:05;12.53;76.08
68867;SHT30;56451;44.804;20.476;2023-11-21T14:25:33;12.63;75.66
68867;SHT30;56451;44.804;20.476;2023-11-21T14:28:00;12.70;75.39
68867;SHT30;56451;44.804;20.476;2023-11-21T14:30:26;12.73;75.36
68867;SHT30;56451;44.804;20.476;2023-11-21T14:32:54;12.77;75.28
68867;SHT30;56451;44.804;20.476;2023-11-21T14:35:20;12.87;75.03
68867;SHT30;56451;44.804;20.476;2023-11-21T14:37:46;12.88;74.82
68867;SHT30;56451;44.804;20.476;2023-11-21T14:40:12;12.94;74.35
68867;SHT30;56451;44.804;20.476;2023-11-21T14:42:42;12.98;74.08
68867;SHT30;56451;44.804;20.476;2023-11-21T14:45:13;12.98;73.81
68867;SHT30;56451;44.804;20.476;2023-11-21T14:47:42;12.98;73.57
68867;SHT30;56451;44.804;20.476;2023-11-21T14:50:13;12.98;73.46
68867;SHT30;56451;44.804;20.476;2023-11-21T14:52:58;12.97;73.56
68867;SHT30;56451;44.804;20.476;2023-11-21T14:55:25;12.95;73.57
68867;SHT30;56451;44.804;20.476;2023-11-21T14:58:09;12.97;73.42
68867;SHT30;56451;44.804;20.476;2023-11-21T15:00:39;12.95;73.38
68867;SHT30;56451;44.804;20.476;2023-11-21T15:03:11;12.99;73.18
68867;SHT30;56451;44.804;20.476;2023-11-21T15:06:01;12.98;73.22
68867;SHT30;56451;44.804;20.476;2023-11-21T15:08:48;12.97;73.23
68867;SHT30;56451;44.804;20.476;2023-11-21T15:11:19;12.97;73.04
68867;SHT30;56451;44.804;20.476;2023-11-21T15:13:49;12.92;73.08
68867;SHT30;56451;44.804;20.476;2023-11-21T15:16:17;12.94;73.01
68867;SHT30;56451;44.804;20.476;2023-11-21T15:18:44;12.94;72.99
68867;SHT30;56451;44.804;20.476;2023-11-21T15:21:10;12.98;72.97
68867;SHT30;56451;44.804;20.476;2023-11-21T15:23:38;12.95;72.87
68867;SHT30;56451;44.804;20.476;2023-11-21T15:26:06;12.97;72.83
68867;SHT30;56451;44.804;20.476;2023-11-21T15:28:34;13.01;72.94
68867;SHT30;56451;44.804;20.476;2023-11-21T15:31:01;13.01;72.78
68867;SHT30;56451;44.804;20.476;2023-11-21T15:33:29;13.08;72.75
68867;SHT30;56451;44.804;20.476;2023-11-21T15:35:55;13.11;72.53
68867;SHT30;56451;44.804;20.476;2023-11-21T15:38:21;13.11;72.37
68867;SHT30;56451;44.804;20.476;2023-11-21T15:40:47;13.14;72.16
68867;SHT30;56451;44.804;20.476;2023-11-21T15:43:13;13.16;71.97
68867;SHT30;56451;44.804;20.476;2023-11-21T15:45:39;13.11;72.14
68867;SHT30;56451;44.804;20.476;2023-11-21T15:48:05;13.14;72.24
68867;SHT30;56451;44.804;20.476;2023-11-21T15:50:32;13.12;72.52
68867;SHT30;56451;44.804;20.476;2023-11-21T15:52:58;13.15;72.63
68867;SHT30;56451;44.804;20.476;2023-11-21T15:55:24;12.99;72.86
68867;SHT30;56451;44.804;20.476;2023-11-21T15:57:50;12.97;73.12
68867;SHT30;56451;44.804;20.476;2023-11-21T16:00:16;12.83;73.56
68867;SHT30;56451;44.804;20.476;2023-11-21T16:02:46;12.63;74.35
68867;SHT30;56451;44.804;20.476;2023-11-21T16:05:12;12.50;74.83
68867;SHT30;56451;44.804;20.476;2023-11-21T16:07:40;12.30;75.49
68867;SHT30;56451;44.804;20.476;2023-11-21T16:10:08;12.15;76.20
68867;SHT30;56451;44.804;20.476;2023-11-21T16:12:37;12.06;76.54
68867;SHT30;56451;44.804;20.476;2023-11-21T16:15:06;11.95;76.92
68867;SHT30;56451;44.804;20.476;2023-11-21T16:17:35;11.81;77.72
68867;SHT30;56451;44.804;20.476;2023-11-21T16:20:05;11.60;78.32
68867;SHT30;56451;44.804;20.476;2023-11-21T16:22:39;11.50;78.93
68867;SHT30;56451;44.804;20.476;2023-11-21T16:25:06;11.47;79.31
68867;SHT30;56451;44.804;20.476;2023-11-21T16:27:40;11.37;79.53
68867;SHT30;56451;44.804;20.476;2023-11-21T16:30:07;11.26;80.16
68867;SHT30;56451;44.804;20.476;2023-11-21T16:32:36;11.23;80.03
68867;SHT30;56451;44.804;20.476;2023-11-21T16:35:05;11.23;79.91
68867;SHT30;56451;44.804;20.476;2023-11-21T16:37:32;11.13;80.37
68867;SHT30;56451;44.804;20.476;2023-11-21T16:39:58;11.09;80.70
68867;SHT30;56451;44.804;20.476;2023-11-21T16:42:25;11.07;80.91
68867;SHT30;56451;44.804;20.476;2023-11-21T16:44:53;11.04;80.99
68867;SHT30;56451;44.804;20.476;2023-11-21T16:47:20;11.02;81.12
68867;SHT30;56451;44.804;20.476;2023-11-21T16:49:46;11.02;81.18
68867;SHT30;56451;44.804;20.476;2023-11-21T16:52:12;11.09;81.18
68867;SHT30;56451;44.804;20.476;2023-11-21T16:54:38;11.14;81.35
68867;SHT30;56451;44.804;20.476;2023-11-21T16:57:04;11.23;81.12
68867;SHT30;56451;44.804;20.476;2023-11-21T16:59:31;11.31;80.98
68867;SHT30;56451;44.804;20.476;2023-11-21T17:01:57;11.41;80.59
68867;SHT30;56451;44.804;20.476;2023-11-21T17:04:23;11.48;80.33
68867;SHT30;56451;44.804;20.476;2023-11-21T17:06:49;11.60;79.93
68867;SHT30;56451;44.804;20.476;2023-11-21T17:09:15;11.68;79.70
68867;SHT30;56451;44.804;20.476;2023-11-21T17:11:50;11.70;79.09
68867;SHT30;56451;44.804;20.476;2023-11-21T17:14:17;11.72;78.93
68867;SHT30;56451;44.804;20.476;2023-11-21T17:16:47;11.78;78.87
68867;SHT30;56451;44.804;20.476;2023-11-21T17:19:15;11.82;78.40
68867;SHT30;56451;44.804;20.476;2023-11-21T17:21:41;11.82;78.41
68867;SHT30;56451;44.804;20.476;2023-11-21T17:24:07;11.82;78.48
68867;SHT30;56451;44.804;20.476;2023-11-21T17:26:35;11.89;78.33
68867;SHT30;56451;44.804;20.476;2023-11-21T17:29:01;11.95;78.03
68867;SHT30;56451;44.804;20.476;2023-11-21T17:31:29;11.96;77.69
68867;SHT30;56451;44.804;20.476;2023-11-21T17:33:59;12.03;77.84
68867;SHT30;56451;44.804;20.476;2023-11-21T17:36:35;12.02;77.81
68867;SHT30;56451;44.804;20.476;2023-11-21T17:39:01;12.10;77.62
68867;SHT30;56451;44.804;20.476;2023-11-21T17:41:29;12.16;77.21
68867;SHT30;56451;44.804;20.476;2023-11-21T17:44:00;12.16;76.90
68867;SHT30;56451;44.804;20.476;2023-11-21T17:46:29;12.15;76.98
68867;SHT30;56451;44.804;20.476;2023-11-21T17:48:56;12.18;76.98
68867;SHT30;56451;44.804;20.476;2023-11-21T17:51:22;12.18;76.99
68867;SHT30;56451;44.804;20.476;2023-11-21T17:53:48;12.19;77.11
68867;SHT30;56451;44.804;20.476;2023-11-21T17:56:17;12.23;77.11
68867;SHT30;56451;44.804;20.476;2023-11-21T17:58:43;12.28;76.69
68867;SHT30;56451;44.804;20.476;2023-11-21T18:01:10;12.36;76.28
68867;SHT30;56451;44.804;20.476;2023-11-21T18:03:36;12.32;76.11
68867;SHT30;56451;44.804;20.476;2023-11-21T18:06:04;12.28;76.44
68867;SHT30;56451;44.804;20.476;2023-11-21T18:08:30;12.22;76.72
68867;SHT30;56451;44.804;20.476;2023-11-21T18:10:55;12.20;76.73
68867;SHT30;56451;44.804;20.476;2023-11-21T18:13:25;12.19;76.75
68867;SHT30;56451;44.804;20.476;2023-11-21T18:15:51;12.13;77.15
68867;SHT30;56451;44.804;20.476;2023-11-21T18:18:17;12.16;77.29
68867;SHT30;56451;44.804;20.476;2023-11-21T18:20:43;12.16;77.34
68867;SHT30;56451;44.804;20.476;2023-11-21T18:23:11;12.15;77.41
68867;SHT30;56451;44.804;20.476;2023-11-21T18:25:37;12.22;77.14
68867;SHT30;56451;44.804;20.476;2023-11-21T18:28:04;12.23;76.98
68867;SHT30;56451;44.804;20.476;2023-11-21T18:30:30;12.22;76.93
68867;SHT30;56451;44.804;20.476;2023-11-21T18:32:56;12.25;77.03
68867;SHT30;56451;44.804;20.476;2023-11-21T18:35:22;12.26;76.90
68867;SHT30;56451;44.804;20.476;2023-11-21T18:37:48;12.26;77.02
68867;SHT30;56451;44.804;20.476;2023-11-21T18:40:14;12.32;76.98
68867;SHT30;56451;44.804;20.476;2023-11-21T18:42:42;12.36;76.75
68867;SHT30;56451;44.804;20.476;2023-11-21T18:45:10;12.41;76.47
68867;SHT30;56451;44.804;20.476;2023-11-21T18:47:36;12.39;76.65
68867;SHT30;56451;44.804;20.476;2023-11-21T18:50:02;12.41;76.69
68867;SHT30;56451;44.804;20.476;2023-11-21T18:52:29;12.47;76.60
68867;SHT30;56451;44.804;20.476;2023-11-21T18:54:55;12.49;76.56
68867;SHT30;56451;44.804;20.476;2023-11-21T18:57:23;12.47;76.65
68867;SHT30;56451;44.804;20.476;2023-11-21T18:59:49;12.53;76.44
68867;SHT30;56451;44.804;20.476;2023-11-21T19:02:15;12.58;76.34
68867;SHT30;56451;44.804;20.476;2023-11-21T19:04:43;12.61;76.40
68867;SHT30;56451;44.804;20.476;2023-11-21T19:07:09;12.76;76.30
68867;SHT30;56451;44.804;20.476;2023-11-21T19:09:35;12.88;75.79
68867;SHT30;56451;44.804;20.476;2023-11-21T19:12:02;12.95;75.23
68867;SHT30;56451;44.804;20.476;2023-11-21T19:14:29;13.02;74.87
68867;SHT30;56451;44.804;20.476;2023-11-21T19:16:54;13.06;74.46
68867;SHT30;56451;44.804;20.476;2023-11-21T19:19:22;13.09;74.45
68867;SHT30;56451;44.804;20.476;2023-11-21T19:21:48;13.09;74.61
68867;SHT30;56451;44.804;20.476;2023-11-21T19:24:14;13.05;74.38
68867;SHT30;56451;44.804;20.476;2023-11-21T19:26:44;13.02;74.33
68867;SHT30;56451;44.804;20.476;2023-11-21T19:29:11;12.94;74.74